sensor_id;sensor_type;location;lat;lon;timestamp;P1;durP1;ratioP1;P2;durP2;ratioP2
57343;SDS011;43180;50.974;18.172;2023-04-23T00:00:26;16.10;;;5.80;;
57343;SDS011;43180;50.974;18.172;2023-04-23T00:10:11;13.00;;;7.80;;
57343;SDS011;43180;50.974;18.172;2023-04-23T00:19:54;21.50;;;10.60;;
57343;SDS011;43180;50.974;18.172;2023-04-23T00:29:37;11.30;;;7.50;;
57343;SDS011;43180;50.974;18.172;2023-04-23T00:39:19;18.70;;;9.50;;
57343;SDS011;43180;50.974;18.172;2023-04-23T00:49:03;24.80;;;9.70;;
57343;SDS011;43180;50.974;18.172;2023-04-23T00:58:48;18.90;;;9.80;;
57343;SDS011;43180;50.974;18.172;2023-04-23T01:08:31;15.40;;;8.80;;
57343;SDS011;43180;50.974;18.172;2023-04-23T01:18:19;23.30;;;6.00;;
57343;SDS011;43180;50.974;18.172;2023-04-23T01:28:02;18.70;;;7.70;;
57343;SDS011;43180;50.974;18.172;2023-04-23T01:37:47;12.60;;;6.00;;
57343;SDS011;43180;50.974;18.172;2023-04-23T01:47:34;7.80;;;5.80;;
57343;SDS011;43180;50.974;18.172;2023-04-23T01:57:17;8.10;;;5.50;;
57343;SDS011;43180;50.974;18.172;2023-04-23T02:07:07;15.20;;;7.80;;
57343;SDS011;43180;50.974;18.172;2023-04-23T02:16:52;13.10;;;6.30;;
57343;SDS011;43180;50.974;18.172;2023-04-23T02:33:52;11.90;;;6.50;;
57343;SDS011;43180;50.974;18.172;2023-04-23T02:43:36;14.50;;;8.20;;
57343;SDS011;43180;50.974;18.172;2023-04-23T02:53:27;8.10;;;4.80;;
57343;SDS011;43180;50.974;18.172;2023-04-23T03:03:09;13.40;;;6.10;;
57343;SDS011;43180;50.974;18.172;2023-04-23T03:12:52;17.30;;;7.50;;
57343;SDS011;43180;50.974;18.172;2023-04-23T03:22:36;16.50;;;7.50;;
57343;SDS011;43180;50.974;18.172;2023-04-23T03:32:19;21.60;;;8.90;;
57343;SDS011;43180;50.974;18.172;2023-04-23T03:42:01;14.20;;;7.60;;
57343;SDS011;43180;50.974;18.172;2023-04-23T03:51:43;15.60;;;8.60;;
57343;SDS011;43180;50.974;18.172;2023-04-23T04:01:26;16.10;;;7.60;;
57343;SDS011;43180;50.974;18.172;2023-04-23T04:11:08;21.90;;;8.80;;
57343;SDS011;43180;50.974;18.172;2023-04-23T04:20:50;21.30;;;9.00;;
57343;SDS011;43180;50.974;18.172;2023-04-23T04:30:36;17.50;;;9.10;;
57343;SDS011;43180;50.974;18.172;2023-04-23T04:40:19;3.90;;;3.70;;
57343;SDS011;43180;50.974;18.172;2023-04-23T04:50:02;10.30;;;6.50;;
57343;SDS011;43180;50.974;18.172;2023-04-23T04:59:47;10.90;;;7.60;;
57343;SDS011;43180;50.974;18.172;2023-04-23T05:09:30;20.70;;;7.10;;
57343;SDS011;43180;50.974;18.172;2023-04-23T05:19:13;13.50;;;7.20;;
57343;SDS011;43180;50.974;18.172;2023-04-23T05:28:55;20.00;;;10.40;;
57343;SDS011;43180;50.974;18.172;2023-04-23T05:38:37;16.80;;;9.30;;
57343;SDS011;43180;50.974;18.172;2023-04-23T05:48:19;19.20;;;10.00;;
57343;SDS011;43180;50.974;18.172;2023-04-23T05:58:02;15.20;;;8.50;;
57343;SDS011;43180;50.974;18.172;2023-04-23T06:07:45;15.90;;;8.60;;
57343;SDS011;43180;50.974;18.172;2023-04-23T06:17:33;15.10;;;8.50;;
57343;SDS011;43180;50.974;18.172;2023-04-23T06:27:16;17.00;;;7.50;;
57343;SDS011;43180;50.974;18.172;2023-04-23T06:36:58;11.60;;;7.30;;
57343;SDS011;43180;50.974;18.172;2023-04-23T06:46:40;3.70;;;3.50;;
57343;SDS011;43180;50.974;18.172;2023-04-23T06:56:23;19.00;;;7.70;;
57343;SDS011;43180;50.974;18.172;2023-04-23T07:06:10;11.80;;;5.60;;
57343;SDS011;43180;50.974;18.172;2023-04-23T07:15:55;10.90;;;5.60;;
57343;SDS011;43180;50.974;18.172;2023-04-23T07:25:37;12.60;;;5.40;;
57343;SDS011;43180;50.974;18.172;2023-04-23T07:35:20;16.50;;;5.00;;
57343;SDS011;43180;50.974;18.172;2023-04-23T07:45:04;11.80;;;6.00;;
57343;SDS011;43180;50.974;18.172;2023-04-23T07:54:46;12.90;;;4.80;;
57343;SDS011;43180;50.974;18.172;2023-04-23T07:59:37;11.90;;;6.10;;
57343;SDS011;43180;50.974;18.172;2023-04-23T08:09:21;10.80;;;4.50;;
57343;SDS011;43180;50.974;18.172;2023-04-23T08:19:03;15.60;;;4.50;;
57343;SDS011;43180;50.974;18.172;2023-04-23T08:28:48;3.10;;;2.80;;
57343;SDS011;43180;50.974;18.172;2023-04-23T08:38:32;8.70;;;3.10;;
57343;SDS011;43180;50.974;18.172;2023-04-23T08:48:31;6.30;;;2.80;;
57343;SDS011;43180;50.974;18.172;2023-04-23T08:58:16;11.20;;;3.10;;
57343;SDS011;43180;50.974;18.172;2023-04-23T09:07:58;4.50;;;3.60;;
57343;SDS011;43180;50.974;18.172;2023-04-23T09:17:41;3.40;;;2.20;;
57343;SDS011;43180;50.974;18.172;2023-04-23T09:27:32;5.70;;;3.00;;
57343;SDS011;43180;50.974;18.172;2023-04-23T09:37:24;7.50;;;3.00;;
57343;SDS011;43180;50.974;18.172;2023-04-23T09:47:10;6.20;;;3.10;;
57343;SDS011;43180;50.974;18.172;2023-04-23T09:57:03;7.80;;;3.00;;
57343;SDS011;43180;50.974;18.172;2023-04-23T10:06:59;7.20;;;3.40;;
57343;SDS011;43180;50.974;18.172;2023-04-23T10:16:52;4.00;;;2.60;;
57343;SDS011;43180;50.974;18.172;2023-04-23T10:26:41;2.90;;;2.40;;
57343;SDS011;43180;50.974;18.172;2023-04-23T10:36:30;4.10;;;2.40;;
57343;SDS011;43180;50.974;18.172;2023-04-23T10:46:32;6.10;;;2.70;;
57343;SDS011;43180;50.974;18.172;2023-04-23T10:56:27;5.30;;;2.70;;
57343;SDS011;43180;50.974;18.172;2023-04-23T11:13:51;1.50;;;1.40;;
57343;SDS011;43180;50.974;18.172;2023-04-23T11:24:20;5.00;;;3.00;;
57343;SDS011;43180;50.974;18.172;2023-04-23T11:41:27;2.90;;;2.30;;
57343;SDS011;43180;50.974;18.172;2023-04-23T11:51:14;6.40;;;2.60;;
57343;SDS011;43180;50.974;18.172;2023-04-23T12:01:02;4.80;;;3.30;;
57343;SDS011;43180;50.974;18.172;2023-04-23T12:10:49;11.30;;;2.50;;
57343;SDS011;43180;50.974;18.172;2023-04-23T12:20:41;4.60;;;2.50;;
57343;SDS011;43180;50.974;18.172;2023-04-23T12:30:28;6.20;;;3.00;;
57343;SDS011;43180;50.974;18.172;2023-04-23T12:40:31;1.80;;;1.50;;
57343;SDS011;43180;50.974;18.172;2023-04-23T12:50:13;8.30;;;3.00;;
57343;SDS011;43180;50.974;18.172;2023-04-23T12:59:56;3.00;;;2.10;;
57343;SDS011;43180;50.974;18.172;2023-04-23T13:09:39;2.90;;;2.40;;
57343;SDS011;43180;50.974;18.172;2023-04-23T13:19:23;4.90;;;3.40;;
57343;SDS011;43180;50.974;18.172;2023-04-23T13:29:05;8.60;;;3.00;;
57343;SDS011;43180;50.974;18.172;2023-04-23T13:38:48;2.60;;;1.60;;
57343;SDS011;43180;50.974;18.172;2023-04-23T13:48:31;6.70;;;3.20;;
57343;SDS011;43180;50.974;18.172;2023-04-23T13:58:15;5.80;;;2.60;;
57343;SDS011;43180;50.974;18.172;2023-04-23T14:07:58;2.30;;;2.10;;
57343;SDS011;43180;50.974;18.172;2023-04-23T14:17:41;5.30;;;2.00;;
57343;SDS011;43180;50.974;18.172;2023-04-23T14:20:09;4.80;;;2.70;;
57343;SDS011;43180;50.974;18.172;2023-04-23T14:29:57;5.80;;;2.30;;
57343;SDS011;43180;50.974;18.172;2023-04-23T14:39:41;2.80;;;2.20;;
57343;SDS011;43180;50.974;18.172;2023-04-23T14:49:24;2.70;;;2.10;;
57343;SDS011;43180;50.974;18.172;2023-04-23T14:59:10;4.10;;;2.60;;
57343;SDS011;43180;50.974;18.172;2023-04-23T15:08:52;12.60;;;3.00;;
57343;SDS011;43180;50.974;18.172;2023-04-23T15:18:55;2.20;;;2.00;;
57343;SDS011;43180;50.974;18.172;2023-04-23T15:28:40;3.80;;;2.70;;
57343;SDS011;43180;50.974;18.172;2023-04-23T15:38:23;5.50;;;3.20;;
57343;SDS011;43180;50.974;18.172;2023-04-23T15:48:07;5.60;;;2.80;;
57343;SDS011;43180;50.974;18.172;2023-04-23T15:57:51;2.30;;;2.00;;
57343;SDS011;43180;50.974;18.172;2023-04-23T16:07:35;3.60;;;1.80;;
57343;SDS011;43180;50.974;18.172;2023-04-23T16:17:20;4.70;;;2.80;;
57343;SDS011;43180;50.974;18.172;2023-04-23T16:27:04;3.20;;;2.10;;
57343;SDS011;43180;50.974;18.172;2023-04-23T16:36:48;2.80;;;2.20;;
57343;SDS011;43180;50.974;18.172;2023-04-23T16:46:31;2.30;;;2.10;;
57343;SDS011;43180;50.974;18.172;2023-04-23T16:56:14;10.80;;;4.30;;
57343;SDS011;43180;50.974;18.172;2023-04-23T17:15:55;13.20;;;5.30;;
57343;SDS011;43180;50.974;18.172;2023-04-23T17:32:54;5.60;;;3.70;;
57343;SDS011;43180;50.974;18.172;2023-04-23T17:42:37;3.70;;;2.50;;
57343;SDS011;43180;50.974;18.172;2023-04-23T17:52:21;6.20;;;2.80;;
57343;SDS011;43180;50.974;18.172;2023-04-23T18:02:03;7.00;;;4.20;;
57343;SDS011;43180;50.974;18.172;2023-04-23T18:11:48;18.30;;;4.10;;
57343;SDS011;43180;50.974;18.172;2023-04-23T18:21:30;6.40;;;4.20;;
57343;SDS011;43180;50.974;18.172;2023-04-23T18:31:13;5.60;;;3.80;;
57343;SDS011;43180;50.974;18.172;2023-04-23T18:41:11;6.70;;;3.50;;
57343;SDS011;43180;50.974;18.172;2023-04-23T18:50:57;7.50;;;4.40;;
57343;SDS011;43180;50.974;18.172;2023-04-23T19:00:39;3.40;;;2.40;;
57343;SDS011;43180;50.974;18.172;2023-04-23T19:10:21;4.00;;;2.90;;
57343;SDS011;43180;50.974;18.172;2023-04-23T19:20:06;4.50;;;3.00;;
57343;SDS011;43180;50.974;18.172;2023-04-23T19:29:52;11.20;;;5.30;;
57343;SDS011;43180;50.974;18.172;2023-04-23T19:39:37;6.90;;;3.20;;
57343;SDS011;43180;50.974;18.172;2023-04-23T19:49:21;6.70;;;3.80;;
57343;SDS011;43180;50.974;18.172;2023-04-23T19:59:03;5.40;;;3.50;;
57343;SDS011;43180;50.974;18.172;2023-04-23T20:08:47;9.20;;;3.10;;
57343;SDS011;43180;50.974;18.172;2023-04-23T20:18:48;10.80;;;4.30;;
57343;SDS011;43180;50.974;18.172;2023-04-23T20:28:34;23.40;;;7.60;;
57343;SDS011;43180;50.974;18.172;2023-04-23T20:38:16;14.00;;;7.40;;
57343;SDS011;43180;50.974;18.172;2023-04-23T20:48:01;14.90;;;7.60;;
57343;SDS011;43180;50.974;18.172;2023-04-23T20:57:45;14.90;;;8.30;;
57343;SDS011;43180;50.974;18.172;2023-04-23T21:02:37;21.80;;;13.00;;
57343;SDS011;43180;50.974;18.172;2023-04-23T21:12:21;19.50;;;7.40;;
57343;SDS011;43180;50.974;18.172;2023-04-23T21:22:03;8.60;;;6.20;;
57343;SDS011;43180;50.974;18.172;2023-04-23T21:31:50;58.10;;;14.00;;
57343;SDS011;43180;50.974;18.172;2023-04-23T21:41:36;21.20;;;6.10;;
57343;SDS011;43180;50.974;18.172;2023-04-23T21:51:22;18.30;;;7.70;;
57343;SDS011;43180;50.974;18.172;2023-04-23T22:01:06;23.10;;;7.50;;
57343;SDS011;43180;50.974;18.172;2023-04-23T22:10:49;24.30;;;8.80;;
57343;SDS011;43180;50.974;18.172;2023-04-23T22:20:34;28.70;;;13.30;;
57343;SDS011;43180;50.974;18.172;2023-04-23T22:30:18;26.40;;;12.30;;
57343;SDS011;43180;50.974;18.172;2023-04-23T22:40:00;2.20;;;0.90;;
57343;SDS011;43180;50.974;18.172;2023-04-23T22:49:45;9.10;;;3.40;;
57343;SDS011;43180;50.974;18.172;2023-04-23T22:59:30;11.10;;;5.60;;
57343;SDS011;43180;50.974;18.172;2023-04-23T23:09:12;7.10;;;3.40;;
57343;SDS011;43180;50.974;18.172;2023-04-23T23:18:57;8.50;;;4.50;;
57343;SDS011;43180;50.974;18.172;2023-04-23T23:26:14;17.40;;;10.00;;
57343;SDS011;43180;50.974;18.172;2023-04-23T23:35:57;14.90;;;5.80;;
57343;SDS011;43180;50.974;18.172;2023-04-23T23:45:39;9.20;;;4.90;;
57343;SDS011;43180;50.974;18.172;2023-04-23T23:55:22;6.10;;;3.60;;
